Time;durP1;ratioP1;P1;durP2;ratioP2;P2;SDS_P1;SDS_P2;PMS_P1;PMS_P2;Temp;Humidity;BMP_temperature;BMP_pressure;BME280_temperature;BME280_humidity;BME280_pressure;Samples;Min_cycle;Max_cycle;Signal;HPM_P1;HPM_P2
2022/07/27 00:01:14;;;;;;;1.85;1.45;;;24.90;47.60;;;;;;5037697;28;20207;-76
2022/07/27 00:03:41;;;;;;;2.55;1.48;;;24.90;47.50;;;;;;5037740;28;20273;-76
2022/07/27 00:06:08;;;;;;;1.65;1.55;;;24.90;47.70;;;;;;5038704;28;20556;-75
2022/07/27 00:08:36;;;;;;;1.50;1.40;;;24.90;47.50;;;;;;5037879;28;20249;-75
2022/07/27 00:11:03;;;;;;;2.10;1.33;;;24.90;47.70;;;;;;5037489;28;20195;-76
2022/07/27 00:13:31;;;;;;;1.48;1.38;;;24.90;47.70;;;;;;5037352;28;20708;-75
2022/07/27 00:15:58;;;;;;;1.27;1.20;;;24.90;47.40;;;;;;5037421;28;20231;-75
2022/07/27 00:18:25;;;;;;;2.10;1.40;;;24.90;48.10;;;;;;5037267;28;20199;-76
2022/07/27 00:20:52;;;;;;;4.30;1.38;;;24.80;47.60;;;;;;5054890;28;20665;-75
2022/07/27 00:23:19;;;;;;;1.40;1.30;;;24.90;47.70;;;;;;5037340;28;20720;-76
2022/07/27 00:25:47;;;;;;;1.40;1.30;;;24.80;47.70;;;;;;5020766;28;20211;-76
2022/07/27 00:28:14;;;;;;;1.50;1.40;;;24.80;47.90;;;;;;5036975;28;20221;-75
2022/07/27 00:30:42;;;;;;;1.50;1.20;;;24.80;47.80;;;;;;5036965;28;20195;-76
2022/07/27 00:33:10;;;;;;;1.50;1.38;;;24.80;47.80;;;;;;5036984;28;20247;-76
2022/07/27 00:35:37;;;;;;;1.30;1.20;;;24.80;47.70;;;;;;5036909;28;20253;-76
2022/07/27 00:38:04;;;;;;;1.50;1.40;;;24.80;47.90;;;;;;5036378;28;20202;-75
2022/07/27 00:40:31;;;;;;;1.75;1.40;;;24.80;48.00;;;;;;5020406;28;20229;-76
2022/07/27 00:42:58;;;;;;;1.40;1.30;;;24.80;47.90;;;;;;5020436;28;20234;-75
2022/07/27 00:45:25;;;;;;;1.55;1.40;;;24.80;47.80;;;;;;5036450;28;20210;-74
2022/07/27 00:47:54;;;;;;;1.38;1.25;;;24.80;47.80;;;;;;5054480;28;20184;-76
2022/07/27 00:50:21;;;;;;;1.50;1.40;;;24.70;48.10;;;;;;5037671;28;20187;-75
2022/07/27 00:52:48;;;;;;;1.50;1.40;;;24.70;47.70;;;;;;5037315;28;20216;-76
2022/07/27 00:55:15;;;;;;;1.75;1.30;;;24.70;47.80;;;;;;5038200;28;20262;-76
2022/07/27 00:57:42;;;;;;;1.52;1.20;;;24.70;47.90;;;;;;5039888;28;20206;-75
2022/07/27 01:00:12;;;;;;;1.55;1.45;;;24.70;48.00;;;;;;5036653;28;20554;-76
2022/07/27 01:02:39;;;;;;;1.63;1.48;;;24.70;48.10;;;;;;5054236;28;20285;-76
2022/07/27 01:05:09;;;;;;;1.52;1.35;;;24.70;48.20;;;;;;5036549;28;20200;-76
2022/07/27 01:07:36;;;;;;;1.40;1.30;;;24.70;48.20;;;;;;5036530;28;20191;-75
2022/07/27 01:10:04;;;;;;;1.77;1.30;;;24.70;48.10;;;;;;5036255;28;20677;-76
2022/07/27 01:12:31;;;;;;;1.58;1.48;;;24.70;48.10;;;;;;5036592;28;20194;-76
2022/07/27 01:14:59;;;;;;;1.80;1.65;;;24.70;48.10;;;;;;5036417;28;20203;-76
2022/07/27 01:17:27;;;;;;;1.73;1.50;;;24.70;48.10;;;;;;5037326;28;20191;-76
2022/07/27 01:19:56;;;;;;;1.38;1.27;;;24.70;48.10;;;;;;5036816;28;20249;-75
2022/07/27 01:22:25;;;;;;;1.60;1.50;;;24.70;48.10;;;;;;5019798;28;20219;-76
2022/07/27 01:24:52;;;;;;;1.60;1.48;;;24.70;48.30;;;;;;5036463;28;20212;-76
2022/07/27 01:27:18;;;;;;;2.45;1.80;;;24.70;48.10;;;;;;5036624;28;20215;-76
2022/07/27 01:29:45;;;;;;;1.55;1.45;;;24.70;48.30;;;;;;5036047;28;20203;-75
2022/07/27 01:32:13;;;;;;;1.55;1.45;;;24.70;48.30;;;;;;5036063;28;20291;-75
2022/07/27 01:34:40;;;;;;;1.65;1.55;;;24.60;48.10;;;;;;5036484;28;20642;-76
2022/07/27 01:37:07;;;;;;;1.50;1.40;;;24.60;48.10;;;;;;5036413;28;20199;-76
2022/07/27 01:39:35;;;;;;;1.42;1.33;;;24.60;48.10;;;;;;5036061;28;20191;-74
2022/07/27 01:42:03;;;;;;;1.50;1.40;;;24.60;48.40;;;;;;5035985;28;20250;-76
2022/07/27 01:44:30;;;;;;;1.60;1.50;;;24.60;48.40;;;;;;5036082;28;20244;-76
2022/07/27 01:46:57;;;;;;;2.65;1.80;;;24.60;48.40;;;;;;5035970;28;20206;-75
2022/07/27 01:49:24;;;;;;;1.70;1.60;;;24.60;48.40;;;;;;5037516;28;20191;-75
2022/07/27 01:51:51;;;;;;;1.80;1.70;;;24.60;48.40;;;;;;5039908;28;20199;-76
2022/07/27 01:54:18;;;;;;;1.85;1.75;;;24.60;48.50;;;;;;5039884;28;20223;-76
2022/07/27 01:56:46;;;;;;;2.03;1.70;;;24.60;48.60;;;;;;5039682;28;20206;-76
2022/07/27 01:59:13;;;;;;;3.03;1.92;;;24.50;48.40;;;;;;5039665;28;20198;-75
2022/07/27 02:01:42;;;;;;;1.75;1.65;;;24.50;48.30;;;;;;5039514;28;20640;-75
2022/07/27 02:04:10;;;;;;;2.42;1.80;;;24.60;48.40;;;;;;5056321;28;20597;-76
2022/07/27 02:06:38;;;;;;;1.75;1.65;;;24.50;48.30;;;;;;5039765;28;20202;-75
2022/07/27 02:09:05;;;;;;;2.38;1.80;;;24.50;48.60;;;;;;5039991;28;20195;-76
2022/07/27 02:14:18;;;;;;;2.03;1.80;;;24.50;48.80;;;;;;5039435;28;20219;-76
2022/07/27 02:16:44;;;;;;;1.90;1.80;;;24.50;48.60;;;;;;5023220;28;20294;-76
2022/07/27 02:19:12;;;;;;;2.08;1.80;;;24.50;49.10;;;;;;5039640;28;20562;-77
2022/07/27 02:21:39;;;;;;;2.38;2.17;;;24.50;48.50;;;;;;5040553;28;20220;-76
2022/07/27 02:24:07;;;;;;;2.00;1.90;;;24.50;48.60;;;;;;5039338;28;20215;-75
2022/07/27 02:26:34;;;;;;;2.58;1.88;;;24.40;48.50;;;;;;5038995;28;20195;-76
2022/07/27 02:29:01;;;;;;;2.28;2.08;;;24.40;48.60;;;;;;5039153;28;20634;-76
2022/07/27 02:31:29;;;;;;;1.95;1.85;;;24.40;48.60;;;;;;5039245;28;20194;-75
2022/07/27 02:33:56;;;;;;;2.30;2.10;;;24.40;48.50;;;;;;5039100;28;20226;-76
2022/07/27 02:36:27;;;;;;;2.55;2.35;;;24.40;48.70;;;;;;5039232;28;20204;-75
2022/07/27 02:38:55;;;;;;;2.55;2.05;;;24.30;48.60;;;;;;5039040;28;20727;-76
2022/07/27 02:41:22;;;;;;;2.20;2.00;;;24.40;48.70;;;;;;5039106;28;20704;-75
2022/07/27 02:43:49;;;;;;;2.40;2.20;;;24.30;48.60;;;;;;5038840;28;20578;-74
2022/07/27 02:46:16;;;;;;;2.10;2.00;;;24.40;48.80;;;;;;5038750;28;20227;-72
2022/07/27 02:48:45;;;;;;;2.60;2.10;;;24.30;48.70;;;;;;5056481;28;20249;-72
2022/07/27 02:51:13;;;;;;;2.03;1.92;;;24.30;48.70;;;;;;5022427;28;20199;-74
2022/07/27 02:53:40;;;;;;;2.15;1.95;;;24.30;48.70;;;;;;5039683;28;20226;-72
2022/07/27 02:56:07;;;;;;;2.05;1.95;;;24.30;48.70;;;;;;5038651;28;20202;-72
2022/07/27 02:58:35;;;;;;;1.80;1.70;;;24.30;48.70;;;;;;5038461;28;20200;-71
2022/07/27 03:01:02;;;;;;;2.30;2.00;;;24.30;48.70;;;;;;5038038;28;20243;-72
2022/07/27 03:03:29;;;;;;;2.13;1.92;;;24.30;48.90;;;;;;5038416;28;20251;-73
2022/07/27 03:05:58;;;;;;;2.50;2.30;;;24.30;48.90;;;;;;5038517;28;20227;-74
2022/07/27 03:08:25;;;;;;;2.13;2.00;;;24.30;48.80;;;;;;5038586;28;20674;-74
2022/07/27 03:10:52;;;;;;;2.15;2.00;;;24.30;48.70;;;;;;5039240;28;20200;-72
2022/07/27 03:13:19;;;;;;;2.17;2.00;;;24.30;48.90;;;;;;5038395;28;20315;-73
2022/07/27 03:15:46;;;;;;;2.35;1.95;;;24.30;49.60;;;;;;5038712;28;20192;-74
2022/07/27 03:18:14;;;;;;;2.78;2.25;;;24.20;49.00;;;;;;5038389;28;20203;-72
2022/07/27 03:20:41;;;;;;;2.25;2.05;;;24.20;48.70;;;;;;5038705;28;20295;-74
2022/07/27 03:23:09;;;;;;;2.30;2.08;;;24.20;48.70;;;;;;5038325;28;20223;-74
2022/07/27 03:25:37;;;;;;;2.50;2.10;;;24.20;48.70;;;;;;5038459;28;20199;-72
2022/07/27 03:28:04;;;;;;;2.38;2.17;;;24.20;48.50;;;;;;5021965;28;20744;-72
2022/07/27 03:30:32;;;;;;;2.60;2.40;;;24.20;48.70;;;;;;5038023;28;20703;-74
2022/07/27 03:32:59;;;;;;;6.25;2.13;;;24.20;48.80;;;;;;5021710;28;20207;-74
2022/07/27 03:35:26;;;;;;;2.60;2.40;;;24.20;48.80;;;;;;5038364;28;20657;-72
2022/07/27 03:37:53;;;;;;;2.58;2.33;;;24.20;48.70;;;;;;5023284;28;20214;-73
2022/07/27 03:40:21;;;;;;;3.63;2.28;;;24.30;48.60;;;;;;5022327;28;20210;-73
2022/07/27 03:42:49;;;;;;;2.92;2.38;;;24.30;48.50;;;;;;5038613;28;20224;-74
2022/07/27 03:45:16;;;;;;;2.28;2.08;;;24.30;48.50;;;;;;5039019;28;20670;-73
2022/07/27 03:47:43;;;;;;;2.40;2.20;;;24.30;48.50;;;;;;5056585;28;20245;-71
2022/07/27 03:50:11;;;;;;;2.90;2.60;;;24.30;48.40;;;;;;5041945;28;20203;-72
2022/07/27 03:52:38;;;;;;;3.30;2.58;;;24.30;48.40;;;;;;5042941;28;20307;-71
2022/07/27 03:55:06;;;;;;;2.38;2.17;;;24.30;48.40;;;;;;5023158;28;20278;-72
2022/07/27 03:57:35;;;;;;;2.50;2.30;;;24.30;48.50;;;;;;5038528;28;20195;-73
2022/07/27 04:00:02;;;;;;;2.10;2.00;;;24.30;48.50;;;;;;5038514;28;20725;-73
2022/07/27 04:02:31;;;;;;;2.53;2.33;;;24.30;48.60;;;;;;5056676;28;20269;-73
2022/07/27 04:04:58;;;;;;;2.47;2.20;;;24.30;48.50;;;;;;5039717;28;20607;-72
2022/07/27 04:07:25;;;;;;;2.80;2.30;;;24.30;48.50;;;;;;5037802;28;20286;-74
2022/07/27 04:09:53;;;;;;;2.20;2.10;;;24.30;48.40;;;;;;5037688;28;20206;-72
2022/07/27 04:12:20;;;;;;;2.55;2.35;;;24.30;48.50;;;;;;5036732;28;20199;-72
2022/07/27 04:14:48;;;;;;;2.53;1.95;;;24.30;48.60;;;;;;5037521;28;20680;-72
2022/07/27 04:17:17;;;;;;;2.92;2.47;;;24.30;48.50;;;;;;5037264;28;20253;-72
2022/07/27 04:19:44;;;;;;;2.45;2.20;;;24.30;48.50;;;;;;5037936;28;20207;-74
2022/07/27 04:22:11;;;;;;;2.55;2.30;;;24.30;48.50;;;;;;5055254;28;20329;-74
2022/07/27 04:24:38;;;;;;;2.95;2.10;;;24.30;48.60;;;;;;5021658;28;20269;-74
2022/07/27 04:27:05;;;;;;;2.92;2.47;;;24.30;48.60;;;;;;5038103;28;20211;-73
2022/07/27 04:29:32;;;;;;;2.67;2.38;;;24.30;48.70;;;;;;5039360;28;20202;-72
2022/07/27 04:32:01;;;;;;;2.30;2.13;;;24.30;48.80;;;;;;5037894;28;20242;-75
2022/07/27 04:34:28;;;;;;;2.55;2.35;;;24.30;48.80;;;;;;5036935;28;20592;-76
2022/07/27 04:36:55;;;;;;;3.35;2.30;;;24.30;48.80;;;;;;5020727;28;20202;-76
2022/07/27 04:39:22;;;;;;;2.55;2.30;;;24.30;49.10;;;;;;5036911;28;20196;-73
2022/07/27 04:41:49;;;;;;;2.78;2.50;;;24.30;48.90;;;;;;5036613;28;20682;-75
2022/07/27 04:44:16;;;;;;;2.92;2.60;;;24.30;49.00;;;;;;5037053;28;20219;-73
2022/07/27 04:46:43;;;;;;;2.60;2.40;;;24.20;49.10;;;;;;5036952;28;20292;-75
2022/07/27 04:49:11;;;;;;;3.53;2.75;;;24.00;49.40;;;;;;5036624;28;20208;-75
2022/07/27 04:51:38;;;;;;;2.95;2.60;;;23.80;49.80;;;;;;5037029;28;20231;-73
2022/07/27 04:54:05;;;;;;;3.95;2.63;;;23.60;50.30;;;;;;5036901;28;20588;-74
2022/07/27 04:56:32;;;;;;;3.40;2.80;;;23.40;51.20;;;;;;5036955;28;20206;-75
2022/07/27 04:58:59;;;;;;;2.50;2.30;;;23.40;50.50;;;;;;5036701;28;20196;-73
2022/07/27 05:01:26;;;;;;;4.00;2.47;;;23.40;50.40;;;;;;5036681;28;20252;-75
2022/07/27 05:03:53;;;;;;;3.53;2.80;;;23.50;50.60;;;;;;5021490;28;20241;-73
2022/07/27 05:06:22;;;;;;;3.25;2.50;;;23.50;51.00;;;;;;5037290;28;20200;-75
2022/07/27 05:08:49;;;;;;;2.88;2.67;;;23.40;51.20;;;;;;5055249;28;20191;-75
2022/07/27 05:11:16;;;;;;;4.10;3.05;;;23.30;51.40;;;;;;5039271;28;20231;-74
2022/07/27 05:13:43;;;;;;;3.30;3.00;;;23.30;51.40;;;;;;5039170;28;20681;-75
2022/07/27 05:16:10;;;;;;;4.07;3.25;;;23.20;51.40;;;;;;5037125;28;20587;-74
2022/07/27 05:18:37;;;;;;;3.33;2.63;;;23.20;51.20;;;;;;5036889;28;20199;-74
2022/07/27 05:21:05;;;;;;;4.65;2.65;;;23.20;50.90;;;;;;5036808;28;20203;-75
2022/07/27 05:23:33;;;;;;;3.72;2.72;;;23.30;50.50;;;;;;5037308;28;20233;-74
2022/07/27 05:26:00;;;;;;;3.03;2.72;;;23.40;50.50;;;;;;5037203;28;20206;-74
2022/07/27 05:28:27;;;;;;;2.83;2.60;;;23.50;50.30;;;;;;5036836;28;20209;-73
2022/07/27 05:30:54;;;;;;;2.95;2.70;;;23.50;50.10;;;;;;5036798;28;20276;-74
2022/07/27 05:33:21;;;;;;;3.22;2.55;;;23.60;49.90;;;;;;5036708;28;20663;-74
2022/07/27 05:35:48;;;;;;;3.28;2.70;;;23.70;49.80;;;;;;5036678;28;20223;-73
2022/07/27 05:38:15;;;;;;;2.92;2.67;;;23.80;49.70;;;;;;5036295;28;20215;-73
2022/07/27 05:40:45;;;;;;;3.15;2.50;;;23.80;49.60;;;;;;5052939;28;20615;-75
2022/07/27 05:43:12;;;;;;;2.58;2.38;;;23.90;49.50;;;;;;5036315;28;20231;-74
2022/07/27 05:45:39;;;;;;;3.92;2.70;;;23.90;49.40;;;;;;5036688;28;20595;-73
2022/07/27 05:48:07;;;;;;;3.83;2.50;;;24.00;49.40;;;;;;5054679;28;20195;-73
2022/07/27 05:50:33;;;;;;;2.22;2.13;;;24.00;49.70;;;;;;5054516;28;20211;-75
2022/07/27 05:53:01;;;;;;;2.90;2.30;;;24.10;49.80;;;;;;5036166;28;20226;-73
2022/07/27 05:55:28;;;;;;;2.60;2.40;;;24.10;49.70;;;;;;5054460;28;20187;-73
2022/07/27 05:57:56;;;;;;;3.58;2.50;;;24.20;49.80;;;;;;5020480;28;20199;-75
2022/07/27 06:00:23;;;;;;;2.95;2.50;;;24.20;49.70;;;;;;5036886;28;20196;-75
2022/07/27 06:02:51;;;;;;;2.75;2.45;;;24.30;49.40;;;;;;5036706;28;20226;-74
2022/07/27 06:05:18;;;;;;;4.15;2.50;;;24.30;49.10;;;;;;5036033;28;20199;-75
2022/07/27 06:08:00;;;;;;;2.80;2.45;;;24.30;49.10;;;;;;5036445;28;20203;-75
2022/07/27 06:10:27;;;;;;;2.55;2.00;;;24.30;48.90;;;;;;5035766;28;20294;-74
2022/07/27 06:12:56;;;;;;;3.47;2.30;;;24.40;49.10;;;;;;5035418;28;20678;-74
2022/07/27 06:15:23;;;;;;;3.05;2.60;;;24.50;49.30;;;;;;5035628;28;20310;-75
2022/07/27 06:17:52;;;;;;;2.65;2.22;;;24.50;49.00;;;;;;5019290;28;20654;-74
2022/07/27 06:20:18;;;;;;;2.50;2.30;;;24.50;49.10;;;;;;5035932;28;20205;-73
2022/07/27 06:22:47;;;;;;;2.65;2.45;;;24.60;49.00;;;;;;5035390;28;20704;-75
2022/07/27 06:25:14;;;;;;;2.50;2.30;;;24.70;49.60;;;;;;5052045;28;20550;-75
2022/07/27 06:27:41;;;;;;;2.45;2.25;;;24.70;48.90;;;;;;5035359;28;20218;-75
2022/07/27 06:30:10;;;;;;;2.60;2.40;;;24.70;48.70;;;;;;5053296;28;20191;-74
2022/07/27 06:32:37;;;;;;;2.60;2.40;;;24.80;48.50;;;;;;5035356;28;20215;-75
2022/07/27 06:35:05;;;;;;;2.60;2.40;;;24.90;48.50;;;;;;5020165;28;20231;-75
2022/07/27 06:37:32;;;;;;;2.55;2.35;;;24.90;48.50;;;;;;5038932;28;20207;-74
2022/07/27 06:40:00;;;;;;;4.57;2.60;;;25.00;48.30;;;;;;5056709;28;20199;-74
2022/07/27 06:42:27;;;;;;;3.15;2.45;;;25.00;48.10;;;;;;5038648;28;20265;-75
2022/07/27 06:44:55;;;;;;;3.45;2.60;;;25.10;48.10;;;;;;5038846;28;20199;-75
2022/07/27 06:47:23;;;;;;;3.20;2.40;;;25.10;47.90;;;;;;5040408;28;20210;-74
2022/07/27 06:49:51;;;;;;;2.60;2.40;;;25.20;47.60;;;;;;5056917;28;20196;-75
2022/07/27 06:52:18;;;;;;;2.63;2.40;;;25.30;47.70;;;;;;5038928;28;20222;-75
2022/07/27 06:54:46;;;;;;;2.78;2.10;;;25.30;47.60;;;;;;5038825;28;20196;-75
2022/07/27 06:57:12;;;;;;;2.50;2.30;;;25.40;47.50;;;;;;5056442;28;20195;-75
2022/07/27 06:59:39;;;;;;;2.67;2.45;;;25.50;47.50;;;;;;5038429;28;20199;-75
2022/07/27 07:02:06;;;;;;;3.35;2.10;;;25.60;47.30;;;;;;5038323;28;20195;-75
2022/07/27 07:04:35;;;;;;;2.40;2.20;;;25.60;47.10;;;;;;5021925;28;20220;-75
2022/07/27 07:07:02;;;;;;;2.72;2.05;;;25.70;47.00;;;;;;5038757;28;20199;-74
2022/07/27 07:09:29;;;;;;;3.45;2.35;;;25.80;46.90;;;;;;5038620;28;20253;-75
2022/07/27 07:11:56;;;;;;;2.70;2.40;;;25.80;46.80;;;;;;5038285;28;20199;-74
2022/07/27 07:14:24;;;;;;;2.50;2.20;;;25.80;46.60;;;;;;5054888;28;20689;-75
2022/07/27 07:16:52;;;;;;;2.53;2.28;;;25.90;46.50;;;;;;5038092;28;20227;-74
2022/07/27 07:19:19;;;;;;;2.65;2.20;;;26.10;46.40;;;;;;5038181;28;20195;-75
2022/07/27 07:21:47;;;;;;;2.30;2.10;;;26.20;46.20;;;;;;5038548;28;20645;-74
2022/07/27 07:24:14;;;;;;;2.90;2.55;;;26.20;46.00;;;;;;5038052;28;20703;-75
2022/07/27 07:26:41;;;;;;;2.53;2.33;;;26.20;46.00;;;;;;5038659;28;20246;-74
2022/07/27 07:29:08;;;;;;;2.67;2.20;;;26.30;46.00;;;;;;5037984;28;20267;-74
2022/07/27 07:31:36;;;;;;;2.42;2.17;;;26.40;45.80;;;;;;5038024;28;20196;-75
2022/07/27 07:34:03;;;;;;;3.17;2.58;;;26.50;45.60;;;;;;5037925;28;20269;-75
2022/07/27 07:36:30;;;;;;;2.33;1.98;;;26.60;45.30;;;;;;5055898;28;20195;-74
2022/07/27 07:38:59;;;;;;;2.88;2.20;;;26.60;45.30;;;;;;5037904;28;20606;-73
2022/07/27 07:41:26;;;;;;;2.47;2.22;;;26.70;45.10;;;;;;5037811;28;20199;-74
2022/07/27 07:43:53;;;;;;;2.38;2.22;;;26.80;44.90;;;;;;5038764;28;20288;-75
2022/07/27 07:46:21;;;;;;;3.10;2.30;;;26.90;44.90;;;;;;5037475;28;20650;-75
2022/07/27 07:48:48;;;;;;;2.20;2.00;;;26.90;44.70;;;;;;5037769;28;20287;-74
2022/07/27 07:51:15;;;;;;;2.45;2.10;;;26.90;44.70;;;;;;5038623;28;20245;-74
2022/07/27 07:53:42;;;;;;;2.28;2.13;;;26.90;44.80;;;;;;5037884;28;20219;-74
2022/07/27 07:56:11;;;;;;;2.40;2.25;;;26.80;44.80;;;;;;5038056;28;20203;-75
2022/07/27 07:58:38;;;;;;;2.47;2.10;;;26.90;44.90;;;;;;5037846;28;20545;-75
2022/07/27 08:01:05;;;;;;;2.05;1.95;;;26.90;44.90;;;;;;5021033;28;20199;-75
2022/07/27 08:03:32;;;;;;;2.50;2.30;;;26.90;44.90;;;;;;5037910;28;20269;-75
2022/07/27 08:06:00;;;;;;;2.40;2.20;;;26.90;44.90;;;;;;5037662;28;20246;-75
2022/07/27 08:08:27;;;;;;;3.10;2.60;;;26.80;44.90;;;;;;5037219;28;20684;-75
2022/07/27 08:10:54;;;;;;;2.47;2.28;;;26.90;44.90;;;;;;5037716;28;20199;-74
2022/07/27 08:13:22;;;;;;;2.40;2.20;;;26.90;44.90;;;;;;5036991;28;20218;-75
2022/07/27 08:15:51;;;;;;;2.20;2.00;;;26.90;45.50;;;;;;5037026;28;20191;-74
2022/07/27 08:18:18;;;;;;;2.20;2.00;;;26.90;44.90;;;;;;5054802;28;20279;-75
2022/07/27 08:20:45;;;;;;;2.53;2.30;;;26.90;44.80;;;;;;5037102;28;20194;-74
2022/07/27 08:23:12;;;;;;;2.33;2.13;;;27.00;44.90;;;;;;5054733;28;20217;-75
2022/07/27 08:25:39;;;;;;;2.08;1.98;;;27.00;44.70;;;;;;5036844;28;20208;-75
2022/07/27 08:28:06;;;;;;;2.30;2.10;;;27.10;44.60;;;;;;5036611;28;20203;-74
2022/07/27 08:30:34;;;;;;;2.47;2.17;;;27.10;44.60;;;;;;5036666;28;20209;-74
2022/07/27 08:33:03;;;;;;;2.42;2.22;;;27.10;44.50;;;;;;5036874;28;20234;-74
2022/07/27 08:35:31;;;;;;;2.50;2.30;;;27.10;44.50;;;;;;5036665;28;20199;-75
2022/07/27 08:37:58;;;;;;;2.05;1.95;;;27.10;44.50;;;;;;5036585;28;20198;-75
2022/07/27 08:40:25;;;;;;;2.25;2.10;;;27.10;44.40;;;;;;5036680;28;20221;-74
2022/07/27 08:42:52;;;;;;;2.20;2.00;;;27.20;44.50;;;;;;5037000;28;20641;-74
2022/07/27 08:45:20;;;;;;;2.40;2.20;;;27.30;44.30;;;;;;5036446;28;20195;-74
2022/07/27 08:47:49;;;;;;;2.05;1.90;;;27.30;44.80;;;;;;5036380;28;20549;-75
2022/07/27 08:50:26;;;;;;;2.20;2.00;;;27.40;44.00;;;;;;5036379;28;20197;-75
2022/07/27 08:53:01;;;;;;;2.10;1.92;;;27.50;43.90;;;;;;5037020;28;20222;-75
2022/07/27 08:55:30;;;;;;;2.40;2.20;;;27.60;43.80;;;;;;5036466;28;20203;-74
2022/07/27 08:57:57;;;;;;;2.15;2.00;;;27.70;44.20;;;;;;5035918;28;20191;-74
2022/07/27 09:00:24;;;;;;;2.08;1.95;;;27.80;43.30;;;;;;5036235;28;20194;-74
2022/07/27 09:02:53;;;;;;;2.13;2.03;;;28.00;43.10;;;;;;5035977;28;20687;-75
2022/07/27 09:05:20;;;;;;;2.67;2.33;;;28.10;42.80;;;;;;5053970;28;20612;-74
2022/07/27 09:07:47;;;;;;;2.78;2.20;;;28.10;42.50;;;;;;5036057;28;20253;-75
2022/07/27 09:10:29;;;;;;;2.22;2.13;;;28.20;42.40;;;;;;5053846;28;20197;-74
2022/07/27 09:12:57;;;;;;;2.50;2.30;;;28.30;42.20;;;;;;5036066;28;20215;-74
2022/07/27 09:15:24;;;;;;;2.13;2.03;;;28.40;42.10;;;;;;5036140;28;20218;-75
2022/07/27 09:17:50;;;;;;;2.22;2.08;;;28.40;42.00;;;;;;5035964;28;20205;-75
2022/07/27 09:20:20;;;;;;;2.60;2.40;;;28.50;41.80;;;;;;5019935;28;20205;-75
2022/07/27 09:22:49;;;;;;;2.30;2.10;;;28.50;41.80;;;;;;5019584;28;20219;-74
2022/07/27 09:25:17;;;;;;;2.13;2.00;;;28.50;42.50;;;;;;5035997;28;20321;-74
2022/07/27 09:27:44;;;;;;;2.03;1.83;;;28.40;42.00;;;;;;5035686;28;20268;-75
2022/07/27 09:30:13;;;;;;;2.53;2.10;;;28.40;42.10;;;;;;5035933;28;20221;-74
2022/07/27 09:32:50;;;;;;;2.17;2.08;;;28.40;42.10;;;;;;5035987;28;20558;-73
2022/07/27 09:35:20;;;;;;;2.42;2.10;;;28.40;42.10;;;;;;5035774;28;20186;-75
2022/07/27 09:37:47;;;;;;;1.92;1.83;;;28.40;42.00;;;;;;5035823;28;20204;-74
2022/07/27 09:40:16;;;;;;;2.20;2.00;;;28.50;41.90;;;;;;5035810;28;20194;-74
2022/07/27 09:42:43;;;;;;;2.17;1.70;;;28.50;41.80;;;;;;5036006;28;20245;-74
2022/07/27 09:45:31;;;;;;;2.92;2.13;;;28.50;41.80;;;;;;5035559;28;20237;-75
2022/07/27 09:48:15;;;;;;;2.10;2.00;;;28.50;41.90;;;;;;5036477;28;20195;-74
2022/07/27 09:50:44;;;;;;;2.10;2.00;;;28.60;41.90;;;;;;5035735;28;20190;-75
2022/07/27 09:53:17;;;;;;;2.20;2.10;;;28.60;41.80;;;;;;5053400;28;20214;-74
2022/07/27 09:55:45;;;;;;;2.45;2.25;;;28.60;42.30;;;;;;5035574;28;20202;-74
2022/07/27 09:58:12;;;;;;;2.92;2.15;;;28.60;41.80;;;;;;5053730;28;20187;-74
2022/07/27 10:00:39;;;;;;;2.00;1.90;;;28.70;41.70;;;;;;5036350;28;20195;-75
2022/07/27 10:03:06;;;;;;;2.10;2.00;;;28.70;41.60;;;;;;5035594;28;20558;-74
2022/07/27 10:05:34;;;;;;;2.72;2.08;;;28.70;41.50;;;;;;5035616;28;20202;-76
2022/07/27 10:08:02;;;;;;;2.00;1.80;;;28.80;41.60;;;;;;5035876;28;20715;-74
2022/07/27 10:10:29;;;;;;;2.20;2.00;;;28.80;41.60;;;;;;5055491;28;20187;-74
2022/07/27 10:12:56;;;;;;;2.00;1.90;;;28.70;41.60;;;;;;5039415;28;20229;-75
2022/07/27 10:15:24;;;;;;;2.20;2.00;;;28.70;41.80;;;;;;5039361;28;20237;-74
2022/07/27 10:17:56;;;;;;;2.28;2.05;;;28.70;41.80;;;;;;5039328;28;20252;-75
2022/07/27 10:20:25;;;;;;;2.10;2.00;;;28.70;42.40;;;;;;5039158;28;20290;-74
2022/07/27 10:22:53;;;;;;;2.20;2.00;;;28.80;41.70;;;;;;5039369;28;20215;-74
2022/07/27 10:25:22;;;;;;;2.03;1.90;;;28.80;41.70;;;;;;5057130;28;20203;-74
2022/07/27 10:28:07;;;;;;;2.00;1.90;;;28.80;41.70;;;;;;5039196;28;20206;-74
2022/07/27 10:30:34;;;;;;;1.90;1.80;;;28.80;41.60;;;;;;5039156;28;20191;-75
2022/07/27 10:33:11;;;;;;;1.90;1.80;;;28.90;41.60;;;;;;5039577;28;20218;-74
2022/07/27 10:35:39;;;;;;;2.45;1.90;;;28.80;41.50;;;;;;5038981;28;20233;-74
2022/07/27 10:38:10;;;;;;;1.90;1.80;;;28.80;41.50;;;;;;5039818;28;20652;-74
2022/07/27 10:40:39;;;;;;;2.25;2.00;;;28.80;41.60;;;;;;5038902;28;20221;-75
2022/07/27 10:43:07;;;;;;;1.83;1.73;;;28.80;41.70;;;;;;5038961;28;20268;-74
2022/07/27 10:45:39;;;;;;;2.15;2.03;;;28.80;41.80;;;;;;5039195;28;20205;-74
2022/07/27 10:48:06;;;;;;;2.17;2.00;;;28.80;41.90;;;;;;5038784;28;20201;-74
2022/07/27 10:50:37;;;;;;;1.92;1.83;;;28.70;42.40;;;;;;5038634;28;20195;-74
2022/07/27 10:53:06;;;;;;;2.13;2.00;;;28.70;41.90;;;;;;5056983;28;20210;-74
2022/07/27 10:55:50;;;;;;;1.90;1.80;;;28.60;42.00;;;;;;5039511;28;20281;-73
2022/07/27 10:58:57;;;;;;;2.30;2.10;;;28.60;42.10;;;;;;5039824;28;20183;-75
2022/07/27 11:01:24;;;;;;;1.92;1.83;;;28.60;42.20;;;;;;5038926;28;20203;-75
2022/07/27 11:03:54;;;;;;;1.90;1.80;;;28.50;42.20;;;;;;5038417;28;20226;-75
2022/07/27 11:06:26;;;;;;;2.15;1.92;;;28.50;42.20;;;;;;5038700;28;20282;-73
2022/07/27 11:08:55;;;;;;;1.80;1.70;;;28.50;42.30;;;;;;5039341;28;20195;-74
2022/07/27 11:11:24;;;;;;;2.00;1.90;;;28.50;42.40;;;;;;5038645;28;20199;-75
2022/07/27 11:13:52;;;;;;;1.98;1.88;;;28.40;42.40;;;;;;5021751;28;20253;-74
2022/07/27 11:16:19;;;;;;;1.90;1.80;;;28.40;42.50;;;;;;5038326;28;20595;-74
2022/07/27 11:18:53;;;;;;;2.00;1.90;;;28.40;42.60;;;;;;5038306;28;20191;-74
2022/07/27 11:21:22;;;;;;;2.03;1.90;;;28.40;42.70;;;;;;5037998;28;20190;-75
2022/07/27 11:23:51;;;;;;;2.13;1.90;;;28.30;42.70;;;;;;5038241;28;20276;-75
2022/07/27 11:26:18;;;;;;;1.80;1.70;;;28.30;42.70;;;;;;5055910;28;20198;-75
2022/07/27 11:28:47;;;;;;;2.13;2.00;;;28.30;42.70;;;;;;5038216;28;20207;-75
2022/07/27 11:31:14;;;;;;;2.08;1.98;;;28.40;43.30;;;;;;5038066;28;20673;-74
2022/07/27 11:33:55;;;;;;;2.25;2.05;;;28.40;42.70;;;;;;5022252;28;20664;-74
2022/07/27 11:36:23;;;;;;;1.92;1.83;;;28.40;43.30;;;;;;5038495;28;20199;-75
2022/07/27 11:38:52;;;;;;;1.88;1.77;;;28.40;42.70;;;;;;5038287;28;20256;-74
2022/07/27 11:41:24;;;;;;;2.00;1.80;;;28.40;42.70;;;;;;5038670;28;20281;-75
2022/07/27 11:43:52;;;;;;;4.20;2.40;;;28.40;41.30;;;;;;5037942;28;20593;-75
2022/07/27 11:46:22;;;;;;;2.33;2.13;;;28.40;41.80;;;;;;5038027;28;20195;-75
2022/07/27 11:48:50;;;;;;;3.55;2.30;;;28.30;41.00;;;;;;5038682;28;20252;-75
2022/07/27 11:51:17;;;;;;;3.03;2.25;;;28.20;40.80;;;;;;5037763;28;20198;-74
2022/07/27 11:53:44;;;;;;;4.35;2.17;;;28.20;41.70;;;;;;5021595;28;20229;-75
2022/07/27 11:56:11;;;;;;;5.07;2.28;;;28.20;41.60;;;;;;5037642;28;20227;-74
2022/07/27 11:58:59;;;;;;;4.05;2.15;;;28.20;42.20;;;;;;5029208;28;20191;-74
2022/07/27 12:01:27;;;;;;;2.60;2.40;;;28.20;42.40;;;;;;5036314;28;20202;-75
2022/07/27 12:04:13;;;;;;;4.05;2.25;;;28.20;40.80;;;;;;5037055;28;20222;-76
2022/07/27 12:06:41;;;;;;;4.07;2.30;;;28.20;42.60;;;;;;5043583;28;20281;-73
2022/07/27 12:09:09;;;;;;;2.20;2.00;;;28.20;42.60;;;;;;5040893;28;20246;-74
2022/07/27 12:11:54;;;;;;;4.18;2.00;;;28.20;42.30;;;;;;5058271;28;20178;-74
2022/07/27 12:14:33;;;;;;;2.50;2.30;;;28.20;41.40;;;;;;5032749;28;20305;-75
2022/07/27 12:17:14;;;;;;;3.03;2.13;;;28.20;40.90;;;;;;5017533;28;20326;-75
2022/07/27 12:19:41;;;;;;;2.33;2.13;;;28.20;38.90;;;;;;5030488;28;20210;-75
2022/07/27 12:22:08;;;;;;;2.45;2.22;;;28.10;39.80;;;;;;5033289;28;20287;-74
2022/07/27 12:24:36;;;;;;;2.40;2.20;;;28.10;40.20;;;;;;5031887;28;20238;-75
2022/07/27 12:27:12;;;;;;;3.17;1.98;;;28.10;40.60;;;;;;5037125;28;20202;-75
2022/07/27 12:29:58;;;;;;;4.22;2.30;;;28.10;40.60;;;;;;5032603;28;20216;-74
2022/07/27 12:32:25;;;;;;;2.08;1.90;;;28.10;40.80;;;;;;5019989;28;20205;-74
2022/07/27 12:34:52;;;;;;;1.83;1.73;;;28.00;40.90;;;;;;5035906;28;20233;-75
2022/07/27 12:37:19;;;;;;;3.72;2.13;;;28.00;40.20;;;;;;5037361;28;20634;-74
2022/07/27 12:39:46;;;;;;;2.08;1.85;;;27.90;39.60;;;;;;5036373;28;20285;-74
2022/07/27 12:42:14;;;;;;;3.03;1.88;;;27.90;40.00;;;;;;5055012;28;20649;-74
2022/07/27 12:44:42;;;;;;;2.42;2.05;;;28.00;40.00;;;;;;5053701;28;20210;-74
2022/07/27 12:50:07;;;;;;;2.67;2.03;;;28.00;39.70;;;;;;5034751;28;20205;-75
2022/07/27 12:52:35;;;;;;;3.03;1.98;;;28.00;39.60;;;;;;5018844;28;20218;-74
2022/07/27 12:55:03;;;;;;;4.20;2.30;;;28.00;40.00;;;;;;5028440;28;20290;-75
2022/07/27 12:57:30;;;;;;;3.47;1.90;;;28.00;38.70;;;;;;5051600;28;20199;-74
2022/07/27 12:59:57;;;;;;;2.28;1.92;;;27.90;38.40;;;;;;5034030;28;20658;-75